Tijuana, México

9:26 PM PST en Noviembre 21, 2017 (GMT -0800)
PROTECCION CIVIL BC (TECATE) | | Change Station

Alt 1739 ft 32.57 °N, 116.61 °W | Updated 4 minutes ago

Despejado
Despejado
72.4 ° F
Sensación térmica 75 ° F
N
2.0
Viento Variable Viento desde ENE
Gusts 5.0 mph

Hoy
Alta -- | Baja -- ° F
--% Posibilidad de precipitaciones
Ayer
Alta -- | Baja -- ° F
Precip. -- pul
Presión 30.06 pul
Visibilidad 6.0 Millas
Nubes Nubes dispersas 20000 ft
Índice de calor 75 ° F
Punto de rocío 31 ° F
Humedad 22%
Precipitaciones 0.00 pul
Espesor de la nieve No disponible.
6:22 AM 4:42 PM
Creciente, 12% visible
METAR MMTJ 220447Z 00000KT 6SM SCT200 18/07 A3006 RMK 8/009 HZY
Presión 30.06 pul
Visibilidad 6.0 Millas
Nubes Nubes dispersas 20000 ft
Índice de calor 75 ° F
Punto de rocío 31 ° F
Humedad 22%
Precipitaciones 0.00 pul
Espesor de la nieve No disponible.
6:22 AM 4:42 PM
Creciente, 12% visible
METAR MMTJ 220447Z 00000KT 6SM SCT200 18/07 A3006 RMK 8/009 HZY

Get Severe Weather Alerts

Thanks for signing up!

Be on the lookout for a verification email in your inbox.

You'll start receiving the daily forecast at 6 AM.

×

10-Day Weather Forecast

No radar image for this location.
×

Almanac

Astronomía

Nov. 21, 2017 Salida Puesta
Hora real
Crepúsculo civil
Crepúsculo náutico
Crepúsculo astronómico
Luna
Horas de luz
Horas de luz
Tomorrow will be .
, % of the Moon is Illuminated

Extremos de hoy

Máximos del país Bajas del país

Community

WunderPhotos

Category 6

Welcome to Category 6. This is the collective home for Weather Underground's featured writeups by Dr. Jeff Masters (right), Bob Henson (left), Chris Burt, and other regular contributors.

Nearby

Calidad del aire

  Calidad del aire Índice AQ Contaminante
Not available.

Grosos de nieve

Estación Profundido Altura

Actividad de terremotos

Ciudad Distance Mag. Tiempo y dato
Magnitud mínima muestra es 2,5.

Temperaturas de aguas costeras

Lugar Temperatura

Stations

Estaciones meteorológicas cercanas

Ubicación de la estación Temp. Vientos helados Punto de rocío Humedad Viento Precip. Alt Actualizado Tipo